Time;durP1;ratioP1;P1;durP2;ratioP2;P2;SDS_P1;SDS_P2;PMS_P1;PMS_P2;Temp;Humidity;BMP_temperature;BMP_pressure;BME280_temperature;BME280_humidity;BME280_pressure;Samples;Min_cycle;Max_cycle;Signal;HPM_P1;HPM_P2
2021/01/11 00:01:54;;;;;;;93.53;34.47;;;;;;;0.05;100.00;102341.16;5203282;28;20036;-66
2021/01/11 00:04:25;;;;;;;92.80;34.88;;;;;;;0.08;100.00;102343.63;5203708;28;20029;-66
2021/01/11 00:06:55;;;;;;;94.35;33.15;;;;;;;0.08;100.00;102346.28;5191063;28;20029;-66
2021/01/11 00:09:26;;;;;;;85.82;32.88;;;;;;;0.11;100.00;102347.94;5203908;28;20116;-66
2021/01/11 00:11:58;;;;;;;97.07;35.13;;;;;;;0.13;100.00;102344.31;5203260;28;20109;-67
2021/01/11 00:14:29;;;;;;;87.20;34.75;;;;;;;0.14;100.00;102343.38;5203285;28;20037;-66
2021/01/11 00:16:59;;;;;;;85.20;34.10;;;;;;;0.14;100.00;102334.63;5202759;28;20032;-66
2021/01/11 00:19:30;;;;;;;76.28;30.27;;;;;;;0.19;100.00;102338.78;5203945;28;20021;-66
2021/01/11 00:22:00;;;;;;;84.70;33.10;;;;;;;0.18;100.00;102337.06;5203865;28;20025;-66
2021/01/11 00:24:31;;;;;;;88.05;33.08;;;;;;;0.20;100.00;102337.00;5203407;28;20044;-66
2021/01/11 00:27:01;;;;;;;91.25;34.40;;;;;;;0.21;100.00;102331.69;5202989;28;20104;-66
2021/01/11 00:29:32;;;;;;;91.40;35.08;;;;;;;0.23;100.00;102332.47;5203492;28;20053;-66
2021/01/11 00:32:02;;;;;;;83.85;34.42;;;;;;;0.24;100.00;102325.38;5203832;28;20108;-66
2021/01/11 00:34:33;;;;;;;86.55;33.67;;;;;;;0.25;100.00;102321.81;5202740;28;20055;-67
2021/01/11 00:37:03;;;;;;;87.22;33.13;;;;;;;0.27;100.00;102325.28;5202444;28;20037;-67
2021/01/11 00:39:33;;;;;;;87.13;33.47;;;;;;;0.28;100.00;102326.13;5207755;28;20025;-66
2021/01/11 00:42:04;;;;;;;86.97;33.60;;;;;;;0.29;100.00;102314.66;5203239;28;20132;-66
2021/01/11 00:44:35;;;;;;;79.03;33.15;;;;;;;0.27;100.00;102305.94;5203481;28;20033;-67
2021/01/11 00:47:05;;;;;;;86.90;33.50;;;;;;;0.28;100.00;102305.88;5202520;28;20021;-66
2021/01/11 00:49:36;;;;;;;86.85;32.15;;;;;;;0.30;100.00;102306.66;5202216;28;20393;-66
2021/01/11 00:52:07;;;;;;;83.40;33.53;;;;;;;0.28;100.00;102297.94;5198620;28;20368;-66
2021/01/11 00:54:37;;;;;;;88.03;31.70;;;;;;;0.33;100.00;102297.75;5191661;28;20026;-67
2021/01/11 00:57:07;;;;;;;84.90;33.65;;;;;;;0.33;100.00;102287.19;5200092;28;20394;-66
2021/01/11 00:59:38;;;;;;;82.18;31.98;;;;;;;0.34;100.00;102289.75;5209969;28;20013;-66
2021/01/11 01:02:08;;;;;;;91.05;34.42;;;;;;;0.33;100.00;102290.69;5202599;28;20253;-66
2021/01/11 01:04:39;;;;;;;95.10;34.95;;;;;;;0.35;100.00;102275.66;5203110;28;20061;-66
2021/01/11 01:07:09;;;;;;;90.32;32.83;;;;;;;0.34;100.00;102281.84;5190264;28;20108;-67
2021/01/11 01:09:40;;;;;;;88.68;35.28;;;;;;;0.36;100.00;102282.66;5202628;28;20025;-66
2021/01/11 01:12:10;;;;;;;89.15;34.35;;;;;;;0.34;100.00;102284.47;5202487;28;20049;-67
2021/01/11 01:14:41;;;;;;;93.28;36.40;;;;;;;0.36;100.00;102276.53;5202437;28;20029;-66
2021/01/11 01:17:11;;;;;;;91.22;34.50;;;;;;;0.36;100.00;102285.28;5201780;28;20030;-66
2021/01/11 01:19:41;;;;;;;100.95;34.75;;;;;;;0.38;100.00;102283.44;5202215;28;20041;-67
2021/01/11 01:22:12;;;;;;;98.18;37.03;;;;;;;0.39;100.00;102281.66;5202590;28;20109;-67
2021/01/11 01:24:42;;;;;;;91.88;36.38;;;;;;;0.37;100.00;102279.09;5202334;28;20401;-66
2021/01/11 01:27:13;;;;;;;98.50;34.90;;;;;;;0.38;100.00;102283.44;5201725;28;20029;-66
2021/01/11 01:29:43;;;;;;;106.60;36.63;;;;;;;0.41;100.00;102274.53;5201887;28;20052;-66
2021/01/11 01:32:13;;;;;;;94.60;33.97;;;;;;;0.38;100.00;102272.88;5201853;28;20013;-66
2021/01/11 01:34:44;;;;;;;100.57;34.58;;;;;;;0.39;100.00;102279.00;5201925;28;20049;-66
2021/01/11 01:37:14;;;;;;;98.63;35.15;;;;;;;0.42;100.00;102274.47;5201020;28;20033;-66
2021/01/11 01:39:45;;;;;;;98.43;35.42;;;;;;;0.38;100.00;102279.94;5202213;28;20033;-66
2021/01/11 01:42:15;;;;;;;95.93;34.60;;;;;;;0.39;100.00;102273.72;5201462;28;20017;-67
2021/01/11 01:44:46;;;;;;;104.88;37.13;;;;;;;0.36;100.00;102269.47;5201533;28;20454;-66
2021/01/11 01:47:16;;;;;;;101.45;34.55;;;;;;;0.37;100.00;102275.59;5200481;28;20060;-67
2021/01/11 01:49:48;;;;;;;95.70;34.28;;;;;;;0.39;100.00;102277.22;5201706;28;20098;-66
2021/01/11 01:52:19;;;;;;;88.95;33.83;;;;;;;0.42;100.00;102273.59;5201672;28;20032;-66
2021/01/11 01:54:50;;;;;;;94.53;35.40;;;;;;;0.38;100.00;102274.66;5188547;28;20025;-66
2021/01/11 01:57:20;;;;;;;86.20;33.15;;;;;;;0.37;100.00;102275.59;5200972;28;20032;-66
2021/01/11 01:59:51;;;;;;;91.70;34.15;;;;;;;0.41;100.00;102282.47;5207804;28;20485;-66
2021/01/11 02:02:22;;;;;;;90.15;33.28;;;;;;;0.50;100.00;102274.13;5202051;28;20029;-66
2021/01/11 02:04:53;;;;;;;96.75;33.85;;;;;;;0.43;100.00;102273.53;5201633;28;20033;-66
2021/01/11 02:08:00;;;;;;;90.68;31.13;;;;;;;0.48;100.00;102276.84;5190066;28;20033;-66
2021/01/11 02:10:57;;;;;;;84.22;31.55;;;;;;;0.43;100.00;102272.69;5202429;28;20060;-66
2021/01/11 02:13:32;;;;;;;83.60;32.13;;;;;;;0.47;100.00;102269.00;5201398;28;20018;-66
2021/01/11 02:16:21;;;;;;;74.93;30.42;;;;;;;0.40;100.00;102267.53;5202051;28;20359;-66
2021/01/11 02:18:58;;;;;;;83.45;32.15;;;;;;;0.42;100.00;102258.63;5201932;28;20450;-66
2021/01/11 02:21:50;;;;;;;85.93;32.08;;;;;;;0.45;100.00;102262.91;5201798;28;20169;-67
2021/01/11 02:24:41;;;;;;;86.70;31.63;;;;;;;0.51;100.00;102265.28;5201607;28;20111;-66
2021/01/11 02:27:35;;;;;;;82.18;29.02;;;;;;;0.55;100.00;102271.28;5201137;28;20074;-66
2021/01/11 02:30:25;;;;;;;85.95;30.65;;;;;;;0.58;100.00;102279.09;5201539;28;20042;-66
2021/01/11 02:33:06;;;;;;;73.68;29.33;;;;;;;0.58;100.00;102269.38;5201345;28;20025;-67
2021/01/11 02:35:47;;;;;;;76.97;31.08;;;;;;;0.61;100.00;102266.59;5201653;28;20037;-66
2021/01/11 02:38:22;;;;;;;74.95;28.92;;;;;;;0.56;100.00;102263.31;5200687;28;20075;-66
2021/01/11 02:40:53;;;;;;;75.03;29.05;;;;;;;0.58;100.00;102261.44;5201274;28;20029;-66
2021/01/11 02:43:24;;;;;;;75.57;30.08;;;;;;;0.60;100.00;102259.59;5201496;28;20025;-66
2021/01/11 02:45:55;;;;;;;71.85;28.27;;;;;;;0.62;100.00;102260.41;5201656;28;20321;-66
2021/01/11 02:48:28;;;;;;;70.68;28.55;;;;;;;0.68;100.00;102264.53;5200516;28;20138;-66
2021/01/11 02:51:20;;;;;;;65.43;26.88;;;;;;;0.68;100.00;102252.19;5201025;28;20029;-66
2021/01/11 02:54:17;;;;;;;59.72;26.27;;;;;;;0.64;100.00;102255.03;5201214;28;20017;-66
2021/01/11 02:57:03;;;;;;;72.30;27.92;;;;;;;0.66;100.00;102255.84;5202098;28;20049;-66
2021/01/11 02:59:39;;;;;;;80.07;28.67;;;;;;;0.71;100.00;102251.22;5211786;28;20471;-66
2021/01/11 03:02:13;;;;;;;64.18;26.75;;;;;;;0.66;100.00;102243.50;5205614;28;20474;-66
2021/01/11 03:04:44;;;;;;;63.70;25.98;;;;;;;0.71;100.00;102249.44;5205303;28;20032;-67
2021/01/11 03:07:20;;;;;;;59.65;25.27;;;;;;;0.74;100.00;102240.50;5191960;28;20025;-67
2021/01/11 03:09:50;;;;;;;68.03;27.30;;;;;;;0.77;100.00;102251.78;5201582;28;20028;-67
2021/01/11 03:12:21;;;;;;;60.22;25.13;;;;;;;0.80;100.00;102253.41;5204813;28;20486;-66
2021/01/11 03:14:52;;;;;;;63.90;26.08;;;;;;;0.81;100.00;102254.31;5205084;28;20025;-67
2021/01/11 03:17:22;;;;;;;64.32;26.05;;;;;;;0.86;100.00;102247.88;5205096;28;20030;-66
2021/01/11 03:19:53;;;;;;;65.03;26.95;;;;;;;0.88;100.00;102246.00;5205183;28;20017;-66
2021/01/11 03:22:23;;;;;;;59.25;25.77;;;;;;;0.90;100.00;102238.00;5205118;28;20033;-66
2021/01/11 03:24:54;;;;;;;70.75;27.10;;;;;;;0.92;100.00;102237.03;5204690;28;20017;-67
2021/01/11 03:27:24;;;;;;;66.88;25.17;;;;;;;0.89;100.00;102225.72;5199639;28;20411;-67
2021/01/11 03:29:54;;;;;;;58.75;25.92;;;;;;;0.89;100.00;102238.94;5205124;28;20473;-66
2021/01/11 03:32:25;;;;;;;60.40;25.10;;;;;;;0.94;100.00;102234.31;5205057;28;20021;-66
2021/01/11 03:34:56;;;;;;;59.40;25.75;;;;;;;0.97;100.00;102208.59;5204656;28;20018;-66
2021/01/11 03:37:26;;;;;;;56.70;24.45;;;;;;;0.90;100.00;102209.78;5204515;28;20028;-66
2021/01/11 03:39:57;;;;;;;60.55;24.13;;;;;;;0.92;100.00;102215.03;5204680;28;20078;-66
2021/01/11 03:42:27;;;;;;;58.65;24.83;;;;;;;0.94;100.00;102206.09;5205054;28;20504;-65
2021/01/11 03:44:58;;;;;;;59.10;24.70;;;;;;;0.97;100.00;102213.88;5204875;28;20520;-66
2021/01/11 03:47:28;;;;;;;59.67;25.80;;;;;;;0.97;100.00;102213.03;5204097;28;20045;-66
2021/01/11 03:49:59;;;;;;;59.28;24.38;;;;;;;0.99;100.00;102212.00;5200704;28;20030;-66
2021/01/11 03:52:33;;;;;;;53.78;24.15;;;;;;;0.95;100.00;102199.88;5203966;28;20033;-66
2021/01/11 03:55:04;;;;;;;62.67;25.45;;;;;;;0.92;100.00;102205.31;5204712;28;20032;-65
2021/01/11 03:57:35;;;;;;;59.67;24.40;;;;;;;0.93;100.00;102193.81;5206556;28;20543;-66
2021/01/11 04:00:07;;;;;;;60.60;24.85;;;;;;;0.92;100.00;102193.88;5208743;28;20021;-66
2021/01/11 04:02:37;;;;;;;61.70;25.40;;;;;;;0.99;100.00;102204.09;5204827;28;20036;-66
2021/01/11 04:05:08;;;;;;;64.63;24.73;;;;;;;1.00;100.00;102207.59;5201724;28;20022;-66
2021/01/11 04:07:39;;;;;;;61.75;24.48;;;;;;;1.02;100.00;102197.81;5194690;28;20033;-66
2021/01/11 04:10:10;;;;;;;61.65;25.30;;;;;;;1.00;100.00;102199.66;5203289;28;20058;-66
2021/01/11 04:12:40;;;;;;;54.45;24.10;;;;;;;1.03;100.00;102200.38;5204696;28;20062;-66
2021/01/11 04:15:11;;;;;;;58.05;25.73;;;;;;;1.06;100.00;102196.75;5203970;28;20075;-66
2021/01/11 04:17:42;;;;;;;62.65;23.40;;;;;;;1.06;100.00;102186.19;5203700;28;20393;-66
2021/01/11 04:20:12;;;;;;;61.28;24.95;;;;;;;1.00;100.00;102186.44;5204522;28;20013;-66
2021/01/11 04:22:43;;;;;;;60.50;25.95;;;;;;;1.03;100.00;102186.31;5204257;28;20362;-67
2021/01/11 04:25:14;;;;;;;54.03;24.40;;;;;;;1.12;100.00;102187.69;5204054;28;20382;-66
2021/01/11 04:27:45;;;;;;;56.60;22.40;;;;;;;1.11;100.00;102192.09;5203449;28;20033;-66
2021/01/11 04:30:15;;;;;;;57.78;23.98;;;;;;;1.19;100.00;102184.66;5204197;28;20030;-67
2021/01/11 04:32:46;;;;;;;53.03;23.27;;;;;;;1.15;100.00;102184.88;5204022;28;20029;-66
2021/01/11 04:35:19;;;;;;;57.53;23.77;;;;;;;1.17;100.00;102178.59;5203667;28;20152;-66
2021/01/11 04:37:50;;;;;;;49.85;22.73;;;;;;;1.18;100.00;102177.66;5203108;28;20033;-66
2021/01/11 04:40:21;;;;;;;57.00;24.45;;;;;;;1.17;100.00;102177.75;5203750;28;20105;-66
2021/01/11 04:43:14;;;;;;;56.65;24.48;;;;;;;1.21;100.00;102177.53;5203800;28;20513;-67
2021/01/11 04:45:45;;;;;;;52.70;23.10;;;;;;;1.22;100.00;102168.66;5203196;28;20064;-66
2021/01/11 04:48:15;;;;;;;52.63;22.05;;;;;;;1.26;100.00;102157.00;5203235;28;20033;-66
2021/01/11 04:50:46;;;;;;;56.53;23.95;;;;;;;1.24;100.00;102177.34;5196186;28;20063;-66
2021/01/11 04:53:19;;;;;;;55.05;23.35;;;;;;;1.24;100.00;102180.00;5203438;28;20113;-65
2021/01/11 04:55:52;;;;;;;54.30;22.73;;;;;;;1.27;100.00;102179.88;5203607;28;20029;-68
2021/01/11 04:58:26;;;;;;;50.40;21.65;;;;;;;1.27;100.00;102169.28;5209735;28;20048;-65
2021/01/11 05:01:00;;;;;;;51.80;20.92;;;;;;;1.27;100.00;102169.28;5203373;28;20021;-66
2021/01/11 05:03:30;;;;;;;53.00;22.25;;;;;;;1.34;100.00;102166.34;5203236;28;20029;-65
2021/01/11 05:06:01;;;;;;;49.60;21.45;;;;;;;1.32;100.00;102157.63;5193532;28;20095;-65
2021/01/11 05:08:31;;;;;;;43.75;20.80;;;;;;;1.37;100.00;102151.19;5200044;28;20025;-66
2021/01/11 05:11:02;;;;;;;47.03;21.05;;;;;;;1.40;100.00;102156.31;5203417;28;20159;-66
2021/01/11 05:13:32;;;;;;;46.17;21.17;;;;;;;1.35;100.00;102145.09;5203106;28;20394;-65
2021/01/11 05:16:11;;;;;;;45.08;20.55;;;;;;;1.40;100.00;102132.50;5203079;28;20035;-65
2021/01/11 05:18:42;;;;;;;41.88;20.42;;;;;;;1.43;100.00;102136.81;5202822;28;20032;-65
2021/01/11 05:21:38;;;;;;;42.35;20.08;;;;;;;1.45;100.00;102137.56;5202152;28;20025;-66
2021/01/11 05:24:28;;;;;;;39.67;18.10;;;;;;;1.46;100.00;102137.53;5203250;28;20033;-66
2021/01/11 05:27:03;;;;;;;43.58;19.33;;;;;;;1.47;100.00;102131.28;5202150;28;20044;-66
2021/01/11 05:29:36;;;;;;;37.17;18.50;;;;;;;1.52;100.00;102131.06;5202419;28;20062;-65
2021/01/11 05:32:08;;;;;;;44.65;19.58;;;;;;;1.50;100.00;102130.25;5202996;28;20017;-66
2021/01/11 05:34:45;;;;;;;38.30;18.15;;;;;;;1.50;100.00;102119.69;5202752;28;20033;-66
2021/01/11 05:37:36;;;;;;;37.30;18.58;;;;;;;1.57;100.00;102121.09;5201770;28;20056;-66
2021/01/11 05:40:12;;;;;;;36.65;16.48;;;;;;;1.66;100.00;102123.28;5202013;28;20512;-66
2021/01/11 05:42:49;;;;;;;31.70;16.17;;;;;;;1.64;100.00;102133.09;5203154;28;20021;-66
2021/01/11 05:45:28;;;;;;;36.92;17.23;;;;;;;1.62;100.00;102137.59;5202254;28;20044;-66
2021/01/11 05:48:06;;;;;;;40.45;17.67;;;;;;;1.66;100.00;102151.53;5202221;28;20021;-66
2021/01/11 05:50:48;;;;;;;35.92;16.50;;;;;;;1.72;100.00;102145.94;5197196;28;20108;-67
2021/01/11 05:53:20;;;;;;;31.13;14.65;;;;;;;1.71;100.00;102141.59;5202142;28;20048;-66
2021/01/11 05:55:53;;;;;;;33.28;15.07;;;;;;;1.70;100.00;102134.56;5189993;28;20032;-67
2021/01/11 05:58:25;;;;;;;29.73;15.18;;;;;;;1.74;100.00;102141.41;5208283;28;20432;-66
2021/01/11 06:00:55;;;;;;;36.22;15.23;;;;;;;1.73;100.00;102148.50;5202098;28;20028;-66
2021/01/11 06:03:26;;;;;;;31.48;15.43;;;;;;;1.80;100.00;102141.09;5202036;28;20253;-66
2021/01/11 06:05:58;;;;;;;28.58;14.77;;;;;;;1.77;100.00;102141.28;5192956;28;20056;-67
2021/01/11 06:08:29;;;;;;;25.30;13.90;;;;;;;1.78;100.00;102142.97;5199293;28;20025;-65
2021/01/11 06:11:01;;;;;;;28.00;13.90;;;;;;;1.75;100.00;102146.63;5196904;28;20032;-66
2021/01/11 06:13:33;;;;;;;26.77;14.70;;;;;;;1.83;100.00;102145.38;5201197;28;20105;-66
2021/01/11 06:16:04;;;;;;;28.60;14.02;;;;;;;1.89;100.00;102142.41;5201575;28;20079;-67
2021/01/11 06:18:34;;;;;;;28.60;13.27;;;;;;;1.81;100.00;102148.97;5201587;28;20017;-68
2021/01/11 06:21:09;;;;;;;27.80;14.02;;;;;;;1.87;100.00;102144.31;5201891;28;20059;-69
2021/01/11 06:23:39;;;;;;;28.17;13.77;;;;;;;1.88;100.00;102138.06;5201757;28;20064;-69
2021/01/11 06:26:30;;;;;;;28.70;13.63;;;;;;;1.96;100.00;102151.78;5201207;28;20033;-68
2021/01/11 06:29:28;;;;;;;33.88;15.73;;;;;;;1.89;100.00;102150.38;5201865;28;20379;-68
2021/01/11 06:32:17;;;;;;;33.78;14.63;;;;;;;1.94;100.00;102148.34;5200839;28;20021;-68
2021/01/11 06:34:47;;;;;;;32.25;16.02;;;;;;;1.91;100.00;102148.47;5202187;28;20265;-65
2021/01/11 06:37:21;;;;;;;30.10;14.15;;;;;;;1.96;100.00;102133.25;5200971;28;20052;-66
2021/01/11 06:39:51;;;;;;;36.80;16.05;;;;;;;1.95;100.00;102137.66;5201623;28;20025;-67
2021/01/11 06:42:22;;;;;;;34.85;15.27;;;;;;;1.94;100.00;102127.16;5201325;28;20482;-66
2021/01/11 06:44:52;;;;;;;35.20;14.95;;;;;;;1.91;100.00;102128.19;5202223;28;20029;-66
2021/01/11 06:47:28;;;;;;;35.60;16.63;;;;;;;1.89;100.00;102127.41;5201369;28;20569;-66
2021/01/11 06:50:08;;;;;;;33.22;15.55;;;;;;;1.92;100.00;102124.59;5196691;28;20030;-66
2021/01/11 06:52:39;;;;;;;36.00;17.00;;;;;;;1.94;100.00;102129.81;5189263;28;20104;-66
2021/01/11 06:55:11;;;;;;;34.45;15.43;;;;;;;1.90;100.00;102118.50;5201910;28;20116;-66
2021/01/11 06:57:47;;;;;;;36.90;16.80;;;;;;;1.97;100.00;102121.72;5204861;28;20021;-66
2021/01/11 07:00:19;;;;;;;42.38;17.83;;;;;;;1.89;100.00;102123.91;5204895;28;20024;-67
2021/01/11 07:02:49;;;;;;;38.42;17.42;;;;;;;1.92;100.00;102113.16;5201650;28;20049;-66
2021/01/11 07:05:33;;;;;;;38.22;17.35;;;;;;;1.92;100.00;102113.16;5197549;28;20491;-66
2021/01/11 07:08:04;;;;;;;42.45;19.17;;;;;;;1.93;100.00;102109.56;5195704;28;20059;-66
2021/01/11 07:10:36;;;;;;;37.38;17.27;;;;;;;1.95;100.00;102111.19;5202449;28;20025;-66
2021/01/11 07:13:17;;;;;;;39.88;17.52;;;;;;;1.91;100.00;102101.72;5201950;28;20100;-66
2021/01/11 07:16:09;;;;;;;42.92;19.00;;;;;;;1.90;100.00;102097.34;5201389;28;20490;-66
2021/01/11 07:18:40;;;;;;;33.85;16.98;;;;;;;1.91;100.00;102106.13;5202141;28;20489;-66
2021/01/11 07:21:12;;;;;;;42.88;19.38;;;;;;;1.87;100.00;102105.47;5201889;28;20028;-66
2021/01/11 07:23:43;;;;;;;39.22;17.83;;;;;;;1.91;100.00;102104.38;5202169;28;20040;-67
2021/01/11 07:26:19;;;;;;;37.65;17.38;;;;;;;1.92;100.00;102092.00;5200824;28;20037;-67
2021/01/11 07:29:04;;;;;;;43.88;18.38;;;;;;;1.88;100.00;102091.28;5201947;28;20072;-66
2021/01/11 07:31:38;;;;;;;39.95;18.10;;;;;;;1.93;100.00;102099.84;5202256;28;20393;-67
2021/01/11 07:34:11;;;;;;;43.20;19.02;;;;;;;1.89;100.00;102087.69;5201921;28;20034;-66
2021/01/11 07:36:44;;;;;;;43.58;19.17;;;;;;;1.88;100.00;102091.28;5201100;28;20102;-65
2021/01/11 07:39:22;;;;;;;43.35;18.35;;;;;;;1.96;100.00;102096.19;5205558;28;20013;-66
2021/01/11 07:41:56;;;;;;;40.90;18.40;;;;;;;1.89;100.00;102095.63;5202164;28;20036;-67
2021/01/11 07:44:31;;;;;;;43.78;17.90;;;;;;;1.91;100.00;102091.13;5205836;28;20389;-67
2021/01/11 07:47:10;;;;;;;39.00;17.83;;;;;;;1.92;100.00;102079.59;5204471;28;20018;-66
2021/01/11 07:49:43;;;;;;;43.13;18.48;;;;;;;1.90;100.00;102075.31;5202780;28;20030;-66
2021/01/11 07:52:17;;;;;;;45.30;18.13;;;;;;;1.90;100.00;102077.97;5202426;28;20064;-66
2021/01/11 07:55:02;;;;;;;43.20;18.25;;;;;;;1.95;100.00;102071.50;5193338;28;20022;-66
2021/01/11 07:57:33;;;;;;;37.97;17.42;;;;;;;1.89;100.00;102082.41;5195007;28;20448;-66
2021/01/11 08:00:09;;;;;;;42.90;18.25;;;;;;;1.87;100.00;102079.00;5210574;28;20466;-66
2021/01/11 08:02:43;;;;;;;42.20;18.58;;;;;;;1.85;100.00;102069.41;5205535;28;20047;-66
2021/01/11 08:05:22;;;;;;;48.35;19.05;;;;;;;1.88;100.00;102070.13;5205270;28;21161;-66
2021/01/11 08:08:04;;;;;;;37.53;16.80;;;;;;;1.90;100.00;102065.59;5204455;28;20022;-65
2021/01/11 08:10:35;;;;;;;40.60;17.33;;;;;;;1.90;100.00;102057.66;5205574;28;20056;-66
2021/01/11 08:13:08;;;;;;;42.45;17.17;;;;;;;1.90;100.00;102059.44;5205498;28;20076;-66
2021/01/11 08:15:38;;;;;;;46.60;16.77;;;;;;;2.01;100.00;102070.34;5205448;28;20440;-65
2021/01/11 08:18:09;;;;;;;41.53;17.15;;;;;;;1.97;100.00;102064.34;5204422;28;20029;-67
2021/01/11 08:20:40;;;;;;;40.13;16.88;;;;;;;1.96;100.00;102065.28;5205725;28;20021;-66
2021/01/11 08:23:10;;;;;;;34.92;15.55;;;;;;;1.98;100.00;102054.59;5204917;28;20067;-66
2021/01/11 08:25:41;;;;;;;37.08;16.30;;;;;;;1.97;100.00;102063.50;5205256;28;20033;-66
2021/01/11 08:28:11;;;;;;;40.92;16.55;;;;;;;1.98;100.00;102059.91;5219419;28;20021;-67
2021/01/11 08:30:42;;;;;;;38.88;16.98;;;;;;;1.99;100.00;102064.25;5204869;28;20437;-66
2021/01/11 08:33:13;;;;;;;36.70;16.02;;;;;;;1.98;100.00;102062.56;5204360;28;20025;-66
2021/01/11 08:35:44;;;;;;;36.90;16.05;;;;;;;1.98;100.00;102063.41;5204132;28;20083;-67
2021/01/11 08:38:14;;;;;;;38.65;16.08;;;;;;;1.98;100.00;102054.59;5203995;28;20052;-66
2021/01/11 08:40:49;;;;;;;37.20;15.18;;;;;;;2.04;100.00;102049.84;5204533;28;20026;-66
2021/01/11 08:43:19;;;;;;;38.55;15.82;;;;;;;2.09;100.00;102057.53;5204308;28;20083;-66
2021/01/11 08:45:52;;;;;;;36.75;16.08;;;;;;;2.10;100.00;102053.09;5204288;28;20026;-66
2021/01/11 08:48:25;;;;;;;34.35;15.65;;;;;;;2.20;100.00;102051.66;5204001;28;20049;-66
2021/01/11 08:50:56;;;;;;;37.38;15.82;;;;;;;2.14;100.00;102058.13;5199644;28;20029;-66
2021/01/11 08:53:29;;;;;;;35.22;15.23;;;;;;;2.22;100.00;102045.34;5203474;28;20040;-67
2021/01/11 08:56:03;;;;;;;34.80;15.43;;;;;;;2.24;100.00;102046.13;5204489;28;20022;-66
2021/01/11 08:58:36;;;;;;;34.85;15.45;;;;;;;2.24;100.00;102054.06;5210641;28;20079;-67
2021/01/11 09:01:14;;;;;;;37.65;15.23;;;;;;;2.36;100.00;102054.31;5204963;28;20402;-66
2021/01/11 09:03:49;;;;;;;35.75;15.52;;;;;;;2.34;100.00;102055.28;5204470;28;20075;-66
2021/01/11 09:06:40;;;;;;;36.67;16.00;;;;;;;2.41;100.00;102062.88;5203582;28;20221;-66
2021/01/11 09:09:13;;;;;;;35.53;14.55;;;;;;;2.35;100.00;102061.41;5204441;28;20057;-67
2021/01/11 09:11:46;;;;;;;40.47;14.93;;;;;;;2.40;100.00;102061.16;5204343;28;20469;-66
2021/01/11 09:14:18;;;;;;;33.75;13.85;;;;;;;2.47;100.00;102063.41;5204294;28;20072;-66
2021/01/11 09:16:56;;;;;;;36.55;15.93;;;;;;;2.36;100.00;102056.97;5203325;28;20032;-67
2021/01/11 09:19:27;;;;;;;37.70;16.38;;;;;;;2.46;100.00;102055.53;5203801;28;20037;-67
2021/01/11 09:22:06;;;;;;;37.03;14.63;;;;;;;2.45;100.00;102053.81;5204145;28;20112;-66
2021/01/11 09:24:36;;;;;;;35.47;15.95;;;;;;;2.41;100.00;102052.28;5204043;28;20045;-69
2021/01/11 09:27:07;;;;;;;40.47;16.10;;;;;;;2.42;100.00;102054.88;5203051;28;20155;-69
2021/01/11 09:29:37;;;;;;;45.42;16.85;;;;;;;2.50;100.00;102057.06;5203998;28;20116;-69
2021/01/11 09:32:08;;;;;;;41.30;15.77;;;;;;;2.55;100.00;102041.78;5204095;28;20464;-69
2021/01/11 09:34:38;;;;;;;38.13;15.48;;;;;;;2.60;100.00;102035.28;5203412;28;20025;-68
2021/01/11 09:37:12;;;;;;;41.33;16.00;;;;;;;2.64;100.00;102025.38;5203567;28;20025;-69
2021/01/11 09:39:43;;;;;;;36.47;14.63;;;;;;;2.79;100.00;102026.31;5223597;28;20018;-68
2021/01/11 09:42:14;;;;;;;33.08;15.18;;;;;;;2.82;100.00;102031.44;5203531;28;20041;-68
2021/01/11 09:44:44;;;;;;;39.00;16.80;;;;;;;2.87;100.00;102034.69;5203536;28;20021;-69
2021/01/11 09:47:15;;;;;;;33.88;14.63;;;;;;;2.95;100.00;102029.78;5203058;28;20035;-69
2021/01/11 09:49:45;;;;;;;31.98;13.75;;;;;;;3.01;100.00;102034.75;5199240;28;20045;-69
2021/01/11 09:52:16;;;;;;;42.38;15.90;;;;;;;3.06;100.00;102038.00;5200111;28;20104;-69
2021/01/11 09:54:46;;;;;;;30.73;13.63;;;;;;;3.10;100.00;102038.66;5190544;28;20483;-68
2021/01/11 09:57:16;;;;;;;36.33;15.30;;;;;;;3.14;100.00;102042.84;5202060;28;20029;-68
2021/01/11 09:59:48;;;;;;;34.80;14.23;;;;;;;3.18;100.00;102036.41;5209585;28;20017;-69
2021/01/11 10:02:18;;;;;;;31.95;14.55;;;;;;;3.18;100.00;102041.72;5202790;28;20030;-68
2021/01/11 10:04:48;;;;;;;32.83;14.18;;;;;;;3.19;100.00;102039.91;5202338;28;20386;-68
2021/01/11 10:07:19;;;;;;;33.85;13.75;;;;;;;3.23;100.00;102041.44;5189763;28;20029;-68
2021/01/11 10:09:49;;;;;;;28.23;13.93;;;;;;;3.18;100.00;102041.72;5201994;28;20381;-69
2021/01/11 10:12:20;;;;;;;27.02;13.05;;;;;;;3.20;100.00;102047.78;5203123;28;20116;-69
2021/01/11 10:14:50;;;;;;;34.13;14.98;;;;;;;3.22;100.00;102045.91;5201493;28;20341;-68
2021/01/11 10:17:21;;;;;;;30.83;13.02;;;;;;;3.24;100.00;102036.03;5202352;28;20029;-68
2021/01/11 10:19:51;;;;;;;34.25;13.57;;;;;;;3.26;100.00;102026.22;5201875;28;20485;-69
2021/01/11 10:22:22;;;;;;;35.33;14.05;;;;;;;3.31;100.00;102024.16;5202249;28;20470;-69
2021/01/11 10:24:52;;;;;;;37.60;15.20;;;;;;;3.35;100.00;102020.34;5201292;28;20045;-69
2021/01/11 10:27:23;;;;;;;30.10;13.32;;;;;;;3.49;100.00;102008.06;5201180;28;20025;-66
2021/01/11 10:29:54;;;;;;;29.60;12.70;;;;;;;3.51;100.00;102007.00;5202129;28;20029;-66
2021/01/11 10:32:24;;;;;;;32.33;12.65;;;;;;;3.52;100.00;102013.19;5202422;28;20521;-69
2021/01/11 10:34:55;;;;;;;32.53;14.13;;;;;;;3.56;100.00;102009.41;5201952;28;20488;-69
2021/01/11 10:37:26;;;;;;;28.88;12.57;;;;;;;3.61;100.00;102002.88;5202351;28;20055;-69
2021/01/11 10:39:56;;;;;;;34.10;12.82;;;;;;;3.63;100.00;101992.16;5206120;28;20040;-69
2021/01/11 10:42:27;;;;;;;35.13;12.80;;;;;;;3.63;100.00;101997.47;5203043;28;20021;-69
2021/01/11 10:44:58;;;;;;;33.08;13.02;;;;;;;3.59;100.00;101993.31;5201651;28;20108;-69
2021/01/11 10:47:29;;;;;;;31.17;13.13;;;;;;;3.62;100.00;101996.63;5189930;28;20124;-68
2021/01/11 10:50:00;;;;;;;27.80;12.15;;;;;;;3.72;100.00;101986.31;5190616;28;20559;-68
2021/01/11 10:52:30;;;;;;;31.27;13.15;;;;;;;3.73;100.00;101987.16;5199820;28;20037;-69
2021/01/11 10:55:01;;;;;;;27.40;12.32;;;;;;;3.80;100.00;101981.34;5199397;28;20544;-69
2021/01/11 10:57:31;;;;;;;28.80;12.63;;;;;;;3.78;100.00;101982.41;5201768;28;20029;-68
2021/01/11 11:00:09;;;;;;;26.77;12.25;;;;;;;3.78;100.00;101964.69;5203347;28;20040;-68
2021/01/11 11:02:40;;;;;;;32.70;14.07;;;;;;;3.79;100.00;101976.16;5200064;28;20029;-69
2021/01/11 11:05:10;;;;;;;30.42;13.05;;;;;;;3.86;100.00;101975.66;5195662;28;20371;-69
2021/01/11 11:07:41;;;;;;;30.50;12.68;;;;;;;3.82;100.00;101968.88;5191049;28;20079;-69
2021/01/11 11:10:12;;;;;;;34.60;14.45;;;;;;;3.84;100.00;101969.59;5198648;28;20549;-68
2021/01/11 11:12:42;;;;;;;29.42;13.07;;;;;;;3.79;100.00;101961.06;5200147;28;20108;-69
2021/01/11 11:15:13;;;;;;;31.40;14.23;;;;;;;3.80;100.00;101964.59;5198165;28;20116;-69
2021/01/11 11:17:44;;;;;;;32.35;14.70;;;;;;;3.76;100.00;101961.25;5199076;28;20375;-68
2021/01/11 11:20:15;;;;;;;31.17;14.52;;;;;;;3.83;100.00;101967.91;5202877;28;20025;-69
2021/01/11 11:22:45;;;;;;;32.22;13.90;;;;;;;3.74;100.00;101949.03;5204034;28;20418;-68
2021/01/11 11:25:16;;;;;;;31.65;14.73;;;;;;;3.75;100.00;101956.06;5203648;28;20397;-69
2021/01/11 11:27:48;;;;;;;29.55;13.35;;;;;;;3.74;100.00;101952.53;5202676;28;20088;-68
2021/01/11 11:30:18;;;;;;;27.75;13.50;;;;;;;3.71;100.00;101954.53;5202709;28;20382;-68
2021/01/11 11:32:50;;;;;;;29.30;13.70;;;;;;;3.68;100.00;101937.00;5204067;28;20029;-69
2021/01/11 11:35:22;;;;;;;37.78;14.70;;;;;;;3.59;100.00;101935.78;5203230;28;20025;-69
2021/01/11 11:37:52;;;;;;;35.72;14.07;;;;;;;3.69;100.00;101928.09;5203463;28;20029;-68